sensor_id;sensor_type;location;lat;lon;timestamp;temperature;humidity
73586;DHT22;61865;50.232;18.614;2022-07-24T00:01:07;18.70;99.90
73586;DHT22;61865;50.232;18.614;2022-07-24T00:03:29;18.70;99.90
73586;DHT22;61865;50.232;18.614;2022-07-24T00:05:52;18.80;99.90
73586;DHT22;61865;50.232;18.614;2022-07-24T00:08:14;18.70;99.90
73586;DHT22;61865;50.232;18.614;2022-07-24T00:10:36;18.70;99.90
73586;DHT22;61865;50.232;18.614;2022-07-24T00:12:58;18.70;99.90
73586;DHT22;61865;50.232;18.614;2022-07-24T00:15:20;18.70;99.90
73586;DHT22;61865;50.232;18.614;2022-07-24T00:17:41;18.70;99.90
73586;DHT22;61865;50.232;18.614;2022-07-24T00:20:05;18.70;99.90
73586;DHT22;61865;50.232;18.614;2022-07-24T00:22:29;18.80;99.90
73586;DHT22;61865;50.232;18.614;2022-07-24T00:24:50;18.70;99.90
73586;DHT22;61865;50.232;18.614;2022-07-24T00:27:12;18.80;99.90
73586;DHT22;61865;50.232;18.614;2022-07-24T00:29:34;18.80;99.90
73586;DHT22;61865;50.232;18.614;2022-07-24T00:31:56;18.80;99.90
73586;DHT22;61865;50.232;18.614;2022-07-24T00:34:18;18.80;99.90
73586;DHT22;61865;50.232;18.614;2022-07-24T00:36:40;18.80;99.90
73586;DHT22;61865;50.232;18.614;2022-07-24T00:39:05;18.80;99.90
73586;DHT22;61865;50.232;18.614;2022-07-24T00:41:27;18.80;99.90
73586;DHT22;61865;50.232;18.614;2022-07-24T00:43:59;18.80;99.90
73586;DHT22;61865;50.232;18.614;2022-07-24T00:46:21;18.70;99.90
73586;DHT22;61865;50.232;18.614;2022-07-24T00:48:43;18.70;99.90
73586;DHT22;61865;50.232;18.614;2022-07-24T00:51:05;18.70;99.90
73586;DHT22;61865;50.232;18.614;2022-07-24T00:53:26;18.70;99.90
73586;DHT22;61865;50.232;18.614;2022-07-24T00:55:50;18.70;99.90
73586;DHT22;61865;50.232;18.614;2022-07-24T00:58:11;18.70;99.90
73586;DHT22;61865;50.232;18.614;2022-07-24T01:00:34;18.60;99.90
73586;DHT22;61865;50.232;18.614;2022-07-24T01:02:56;18.70;99.90
73586;DHT22;61865;50.232;18.614;2022-07-24T01:05:18;18.60;99.90
73586;DHT22;61865;50.232;18.614;2022-07-24T01:07:41;18.60;99.90
73586;DHT22;61865;50.232;18.614;2022-07-24T01:10:03;18.60;99.90
73586;DHT22;61865;50.232;18.614;2022-07-24T01:12:27;18.50;99.90
73586;DHT22;61865;50.232;18.614;2022-07-24T01:14:49;18.40;99.90
73586;DHT22;61865;50.232;18.614;2022-07-24T01:17:11;18.40;99.90
73586;DHT22;61865;50.232;18.614;2022-07-24T01:19:33;18.40;99.90
73586;DHT22;61865;50.232;18.614;2022-07-24T01:21:56;18.30;99.90
73586;DHT22;61865;50.232;18.614;2022-07-24T01:24:19;18.30;99.90
73586;DHT22;61865;50.232;18.614;2022-07-24T01:26:41;18.30;99.90
73586;DHT22;61865;50.232;18.614;2022-07-24T01:29:03;18.20;99.90
73586;DHT22;61865;50.232;18.614;2022-07-24T01:31:25;18.10;99.90
73586;DHT22;61865;50.232;18.614;2022-07-24T01:33:47;18.10;99.90
73586;DHT22;61865;50.232;18.614;2022-07-24T01:36:09;18.10;99.90
73586;DHT22;61865;50.232;18.614;2022-07-24T01:38:32;18.00;99.90
73586;DHT22;61865;50.232;18.614;2022-07-24T01:40:54;17.90;99.90
73586;DHT22;61865;50.232;18.614;2022-07-24T01:43:16;17.90;99.90
73586;DHT22;61865;50.232;18.614;2022-07-24T01:45:38;17.90;99.90
73586;DHT22;61865;50.232;18.614;2022-07-24T01:48:00;17.80;99.90
73586;DHT22;61865;50.232;18.614;2022-07-24T01:50:23;17.70;99.90
73586;DHT22;61865;50.232;18.614;2022-07-24T01:52:45;17.70;99.90
73586;DHT22;61865;50.232;18.614;2022-07-24T01:55:09;17.60;99.90
73586;DHT22;61865;50.232;18.614;2022-07-24T01:57:31;17.60;99.90
73586;DHT22;61865;50.232;18.614;2022-07-24T01:59:53;17.60;99.90
73586;DHT22;61865;50.232;18.614;2022-07-24T02:02:15;17.50;99.90
73586;DHT22;61865;50.232;18.614;2022-07-24T02:04:36;17.50;99.90
73586;DHT22;61865;50.232;18.614;2022-07-24T02:06:58;17.40;99.90
73586;DHT22;61865;50.232;18.614;2022-07-24T02:09:20;17.40;99.90
73586;DHT22;61865;50.232;18.614;2022-07-24T02:11:43;17.40;99.90
73586;DHT22;61865;50.232;18.614;2022-07-24T02:14:05;17.30;99.90
73586;DHT22;61865;50.232;18.614;2022-07-24T02:16:27;17.30;99.90
73586;DHT22;61865;50.232;18.614;2022-07-24T02:18:50;17.20;99.90
73586;DHT22;61865;50.232;18.614;2022-07-24T02:21:11;17.20;99.90
73586;DHT22;61865;50.232;18.614;2022-07-24T02:23:33;17.20;99.90
73586;DHT22;61865;50.232;18.614;2022-07-24T02:25:55;17.10;99.90
73586;DHT22;61865;50.232;18.614;2022-07-24T02:28:18;17.10;99.90
73586;DHT22;61865;50.232;18.614;2022-07-24T02:30:41;17.10;99.90
73586;DHT22;61865;50.232;18.614;2022-07-24T02:33:03;17.00;99.90
73586;DHT22;61865;50.232;18.614;2022-07-24T02:35:25;17.00;99.90
73586;DHT22;61865;50.232;18.614;2022-07-24T02:37:46;16.90;99.90
73586;DHT22;61865;50.232;18.614;2022-07-24T02:40:10;17.00;99.90
73586;DHT22;61865;50.232;18.614;2022-07-24T02:42:32;17.00;99.90
73586;DHT22;61865;50.232;18.614;2022-07-24T02:44:55;17.00;99.90
73586;DHT22;61865;50.232;18.614;2022-07-24T02:47:17;17.00;99.90
73586;DHT22;61865;50.232;18.614;2022-07-24T02:49:39;16.90;99.90
73586;DHT22;61865;50.232;18.614;2022-07-24T02:52:01;16.80;99.90
73586;DHT22;61865;50.232;18.614;2022-07-24T02:54:23;16.70;99.90
73586;DHT22;61865;50.232;18.614;2022-07-24T02:56:45;16.70;99.90
73586;DHT22;61865;50.232;18.614;2022-07-24T02:59:07;16.60;99.90
73586;DHT22;61865;50.232;18.614;2022-07-24T03:01:30;16.60;99.90
73586;DHT22;61865;50.232;18.614;2022-07-24T03:03:52;16.50;99.90
73586;DHT22;61865;50.232;18.614;2022-07-24T03:06:13;16.50;99.90
73586;DHT22;61865;50.232;18.614;2022-07-24T03:08:35;16.50;99.90
73586;DHT22;61865;50.232;18.614;2022-07-24T03:10:57;16.40;99.90
73586;DHT22;61865;50.232;18.614;2022-07-24T03:13:19;16.30;99.90
73586;DHT22;61865;50.232;18.614;2022-07-24T03:15:41;16.40;99.90
73586;DHT22;61865;50.232;18.614;2022-07-24T03:18:04;16.40;99.90
73586;DHT22;61865;50.232;18.614;2022-07-24T03:20:27;16.30;99.90
73586;DHT22;61865;50.232;18.614;2022-07-24T03:22:50;16.40;99.90
73586;DHT22;61865;50.232;18.614;2022-07-24T03:25:12;16.40;99.90
73586;DHT22;61865;50.232;18.614;2022-07-24T03:27:34;16.40;99.90
73586;DHT22;61865;50.232;18.614;2022-07-24T03:29:56;16.50;99.90
73586;DHT22;61865;50.232;18.614;2022-07-24T03:32:18;16.50;99.90
73586;DHT22;61865;50.232;18.614;2022-07-24T03:34:41;16.60;99.90
73586;DHT22;61865;50.232;18.614;2022-07-24T03:37:03;16.60;99.90
73586;DHT22;61865;50.232;18.614;2022-07-24T03:39:24;16.70;99.90
73586;DHT22;61865;50.232;18.614;2022-07-24T03:41:46;16.70;99.90
73586;DHT22;61865;50.232;18.614;2022-07-24T03:44:08;16.70;99.90
73586;DHT22;61865;50.232;18.614;2022-07-24T03:46:30;16.70;99.90
73586;DHT22;61865;50.232;18.614;2022-07-24T03:48:52;16.70;99.90
73586;DHT22;61865;50.232;18.614;2022-07-24T03:51:15;16.70;99.90
73586;DHT22;61865;50.232;18.614;2022-07-24T03:53:37;16.80;99.90
73586;DHT22;61865;50.232;18.614;2022-07-24T03:55:59;16.90;99.90
73586;DHT22;61865;50.232;18.614;2022-07-24T03:58:20;17.10;99.90
73586;DHT22;61865;50.232;18.614;2022-07-24T04:00:42;17.30;99.90
73586;DHT22;61865;50.232;18.614;2022-07-24T04:03:04;17.50;99.90
73586;DHT22;61865;50.232;18.614;2022-07-24T04:05:26;17.50;99.90
73586;DHT22;61865;50.232;18.614;2022-07-24T04:07:49;17.70;99.90
73586;DHT22;61865;50.232;18.614;2022-07-24T04:10:11;18.10;99.90
73586;DHT22;61865;50.232;18.614;2022-07-24T04:12:33;18.30;99.90
73586;DHT22;61865;50.232;18.614;2022-07-24T04:14:55;18.30;99.90
73586;DHT22;61865;50.232;18.614;2022-07-24T04:17:17;18.70;99.90
73586;DHT22;61865;50.232;18.614;2022-07-24T04:19:39;19.00;99.90
73586;DHT22;61865;50.232;18.614;2022-07-24T04:22:01;19.30;99.30
73586;DHT22;61865;50.232;18.614;2022-07-24T04:24:24;18.80;99.80
73586;DHT22;61865;50.232;18.614;2022-07-24T04:26:46;18.40;99.90
73586;DHT22;61865;50.232;18.614;2022-07-24T04:29:08;18.30;99.90
73586;DHT22;61865;50.232;18.614;2022-07-24T04:31:30;18.20;99.90
73586;DHT22;61865;50.232;18.614;2022-07-24T04:33:52;18.20;99.90
73586;DHT22;61865;50.232;18.614;2022-07-24T04:36:14;18.80;99.90
73586;DHT22;61865;50.232;18.614;2022-07-24T04:38:35;18.90;99.90
73586;DHT22;61865;50.232;18.614;2022-07-24T04:40:59;18.90;99.90
73586;DHT22;61865;50.232;18.614;2022-07-24T04:43:21;19.10;99.90
73586;DHT22;61865;50.232;18.614;2022-07-24T04:45:43;18.80;99.90
73586;DHT22;61865;50.232;18.614;2022-07-24T04:48:05;18.90;99.90
73586;DHT22;61865;50.232;18.614;2022-07-24T04:50:27;18.90;99.90
73586;DHT22;61865;50.232;18.614;2022-07-24T04:52:49;19.00;99.90
73586;DHT22;61865;50.232;18.614;2022-07-24T04:55:11;19.10;99.90
73586;DHT22;61865;50.232;18.614;2022-07-24T04:57:35;19.10;99.90
73586;DHT22;61865;50.232;18.614;2022-07-24T04:59:57;19.00;99.50
73586;DHT22;61865;50.232;18.614;2022-07-24T05:02:19;19.20;99.90
73586;DHT22;61865;50.232;18.614;2022-07-24T05:04:41;19.20;99.70
73586;DHT22;61865;50.232;18.614;2022-07-24T05:07:03;19.30;99.90
73586;DHT22;61865;50.232;18.614;2022-07-24T05:09:25;19.40;99.50
73586;DHT22;61865;50.232;18.614;2022-07-24T05:11:47;19.50;99.90
73586;DHT22;61865;50.232;18.614;2022-07-24T05:14:10;19.60;97.10
73586;DHT22;61865;50.232;18.614;2022-07-24T05:16:32;19.60;95.40
73586;DHT22;61865;50.232;18.614;2022-07-24T05:18:54;19.60;94.80
73586;DHT22;61865;50.232;18.614;2022-07-24T05:21:16;19.70;93.80
73586;DHT22;61865;50.232;18.614;2022-07-24T05:23:37;19.70;95.20
73586;DHT22;61865;50.232;18.614;2022-07-24T05:25:59;19.80;94.00
73586;DHT22;61865;50.232;18.614;2022-07-24T05:28:21;20.10;91.90
73586;DHT22;61865;50.232;18.614;2022-07-24T05:30:45;19.90;90.90
73586;DHT22;61865;50.232;18.614;2022-07-24T05:33:06;19.90;90.00
73586;DHT22;61865;50.232;18.614;2022-07-24T05:35:28;19.90;91.40
73586;DHT22;61865;50.232;18.614;2022-07-24T05:37:50;20.00;92.10
73586;DHT22;61865;50.232;18.614;2022-07-24T05:40:12;19.90;92.80
73586;DHT22;61865;50.232;18.614;2022-07-24T05:42:34;19.90;91.50
73586;DHT22;61865;50.232;18.614;2022-07-24T05:44:56;20.00;89.30
73586;DHT22;61865;50.232;18.614;2022-07-24T05:47:19;19.90;91.00
73586;DHT22;61865;50.232;18.614;2022-07-24T05:49:41;20.20;92.90
73586;DHT22;61865;50.232;18.614;2022-07-24T05:52:04;20.40;91.00
73586;DHT22;61865;50.232;18.614;2022-07-24T05:54:26;20.60;90.70
73586;DHT22;61865;50.232;18.614;2022-07-24T05:56:47;20.70;87.30
73586;DHT22;61865;50.232;18.614;2022-07-24T05:59:09;20.70;86.20
73586;DHT22;61865;50.232;18.614;2022-07-24T06:01:31;20.60;87.60
73586;DHT22;61865;50.232;18.614;2022-07-24T06:03:54;20.70;90.10
73586;DHT22;61865;50.232;18.614;2022-07-24T06:06:16;20.90;85.70
73586;DHT22;61865;50.232;18.614;2022-07-24T06:08:38;20.90;87.80
73586;DHT22;61865;50.232;18.614;2022-07-24T06:11:00;21.00;82.00
73586;DHT22;61865;50.232;18.614;2022-07-24T06:13:22;21.10;84.00
73586;DHT22;61865;50.232;18.614;2022-07-24T06:15:44;20.90;81.00
73586;DHT22;61865;50.232;18.614;2022-07-24T06:18:06;20.70;80.60
73586;DHT22;61865;50.232;18.614;2022-07-24T06:20:29;20.60;84.20
73586;DHT22;61865;50.232;18.614;2022-07-24T06:22:51;20.40;81.30
73586;DHT22;61865;50.232;18.614;2022-07-24T06:25:13;20.50;85.10
73586;DHT22;61865;50.232;18.614;2022-07-24T06:27:40;20.60;84.70
73586;DHT22;61865;50.232;18.614;2022-07-24T06:30:02;20.50;84.00
73586;DHT22;61865;50.232;18.614;2022-07-24T06:32:24;20.50;84.80
73586;DHT22;61865;50.232;18.614;2022-07-24T06:34:46;20.40;82.60
73586;DHT22;61865;50.232;18.614;2022-07-24T06:37:09;20.30;83.80
73586;DHT22;61865;50.232;18.614;2022-07-24T06:39:31;20.30;84.70
73586;DHT22;61865;50.232;18.614;2022-07-24T06:41:53;20.40;82.80
73586;DHT22;61865;50.232;18.614;2022-07-24T06:44:15;20.50;84.60
73586;DHT22;61865;50.232;18.614;2022-07-24T06:46:36;20.30;79.60
73586;DHT22;61865;50.232;18.614;2022-07-24T06:48:58;20.40;79.60
73586;DHT22;61865;50.232;18.614;2022-07-24T06:51:20;20.30;78.30
73586;DHT22;61865;50.232;18.614;2022-07-24T06:53:43;20.30;79.20
73586;DHT22;61865;50.232;18.614;2022-07-24T06:56:07;20.40;83.90
73586;DHT22;61865;50.232;18.614;2022-07-24T06:58:29;20.60;81.70
73586;DHT22;61865;50.232;18.614;2022-07-24T07:00:51;20.60;77.40
73586;DHT22;61865;50.232;18.614;2022-07-24T07:03:13;20.60;78.70
73586;DHT22;61865;50.232;18.614;2022-07-24T07:05:35;20.70;79.00
73586;DHT22;61865;50.232;18.614;2022-07-24T07:07:57;20.80;76.80
73586;DHT22;61865;50.232;18.614;2022-07-24T07:10:20;20.90;78.30
73586;DHT22;61865;50.232;18.614;2022-07-24T07:12:42;20.90;75.30
73586;DHT22;61865;50.232;18.614;2022-07-24T07:15:05;21.00;75.10
73586;DHT22;61865;50.232;18.614;2022-07-24T07:17:27;21.20;74.50
73586;DHT22;61865;50.232;18.614;2022-07-24T07:19:48;21.10;74.00
73586;DHT22;61865;50.232;18.614;2022-07-24T07:22:10;21.30;74.50
73586;DHT22;61865;50.232;18.614;2022-07-24T07:24:32;21.40;73.70
73586;DHT22;61865;50.232;18.614;2022-07-24T07:26:56;21.30;74.70
73586;DHT22;61865;50.232;18.614;2022-07-24T07:29:17;21.30;70.60
73586;DHT22;61865;50.232;18.614;2022-07-24T07:31:39;21.20;72.10
73586;DHT22;61865;50.232;18.614;2022-07-24T07:34:01;21.40;72.60
73586;DHT22;61865;50.232;18.614;2022-07-24T07:36:23;21.40;73.30
73586;DHT22;61865;50.232;18.614;2022-07-24T07:38:45;21.50;72.50
73586;DHT22;61865;50.232;18.614;2022-07-24T07:41:07;21.60;73.00
73586;DHT22;61865;50.232;18.614;2022-07-24T07:43:30;21.60;74.20
73586;DHT22;61865;50.232;18.614;2022-07-24T07:45:52;22.00;70.90
73586;DHT22;61865;50.232;18.614;2022-07-24T07:48:14;21.90;68.90
73586;DHT22;61865;50.232;18.614;2022-07-24T07:50:36;21.70;65.50
73586;DHT22;61865;50.232;18.614;2022-07-24T07:52:57;21.50;68.90
73586;DHT22;61865;50.232;18.614;2022-07-24T07:55:19;21.60;69.60
73586;DHT22;61865;50.232;18.614;2022-07-24T07:57:41;21.80;68.20
73586;DHT22;61865;50.232;18.614;2022-07-24T08:00:06;21.90;68.00
73586;DHT22;61865;50.232;18.614;2022-07-24T08:02:28;22.00;67.40
73586;DHT22;61865;50.232;18.614;2022-07-24T08:04:50;22.40;68.20
73586;DHT22;61865;50.232;18.614;2022-07-24T08:07:12;22.70;66.60
73586;DHT22;61865;50.232;18.614;2022-07-24T08:09:34;22.70;63.80
73586;DHT22;61865;50.232;18.614;2022-07-24T08:11:56;22.00;65.70
73586;DHT22;61865;50.232;18.614;2022-07-24T08:14:18;21.70;66.20
73586;DHT22;61865;50.232;18.614;2022-07-24T08:16:41;21.60;67.70
73586;DHT22;61865;50.232;18.614;2022-07-24T08:19:03;21.90;70.60
73586;DHT22;61865;50.232;18.614;2022-07-24T08:21:25;22.30;67.90
73586;DHT22;61865;50.232;18.614;2022-07-24T08:23:47;22.40;65.80
73586;DHT22;61865;50.232;18.614;2022-07-24T08:26:09;22.40;63.90
73586;DHT22;61865;50.232;18.614;2022-07-24T08:28:31;22.40;64.00
73586;DHT22;61865;50.232;18.614;2022-07-24T08:30:53;22.20;66.50
73586;DHT22;61865;50.232;18.614;2022-07-24T08:33:17;21.90;64.60
73586;DHT22;61865;50.232;18.614;2022-07-24T08:35:38;21.60;64.80
73586;DHT22;61865;50.232;18.614;2022-07-24T08:38:01;21.60;64.90
73586;DHT22;61865;50.232;18.614;2022-07-24T08:40:23;21.70;64.40
73586;DHT22;61865;50.232;18.614;2022-07-24T08:42:45;21.90;64.30
73586;DHT22;61865;50.232;18.614;2022-07-24T08:45:09;22.10;64.50
73586;DHT22;61865;50.232;18.614;2022-07-24T08:47:31;22.40;62.40
73586;DHT22;61865;50.232;18.614;2022-07-24T08:49:56;22.40;62.30
73586;DHT22;61865;50.232;18.614;2022-07-24T08:52:21;22.30;60.70
73586;DHT22;61865;50.232;18.614;2022-07-24T08:54:43;22.10;60.80
73586;DHT22;61865;50.232;18.614;2022-07-24T08:57:05;21.90;61.30
73586;DHT22;61865;50.232;18.614;2022-07-24T08:59:26;22.00;61.80
73586;DHT22;61865;50.232;18.614;2022-07-24T09:01:49;22.20;58.30
73586;DHT22;61865;50.232;18.614;2022-07-24T09:04:35;22.40;53.50
73586;DHT22;61865;50.232;18.614;2022-07-24T09:06:59;22.50;54.10
73586;DHT22;61865;50.232;18.614;2022-07-24T09:09:21;22.40;54.50
73586;DHT22;61865;50.232;18.614;2022-07-24T09:11:43;22.40;56.00
73586;DHT22;61865;50.232;18.614;2022-07-24T09:14:05;22.50;56.60
73586;DHT22;61865;50.232;18.614;2022-07-24T09:16:44;22.70;55.30
73586;DHT22;61865;50.232;18.614;2022-07-24T09:19:08;22.80;56.70
73586;DHT22;61865;50.232;18.614;2022-07-24T09:21:33;23.00;55.60
73586;DHT22;61865;50.232;18.614;2022-07-24T09:23:56;23.00;56.20
73586;DHT22;61865;50.232;18.614;2022-07-24T09:26:23;23.10;56.70
73586;DHT22;61865;50.232;18.614;2022-07-24T09:28:52;22.80;58.50
73586;DHT22;61865;50.232;18.614;2022-07-24T09:31:14;22.60;58.30
73586;DHT22;61865;50.232;18.614;2022-07-24T09:33:36;22.50;56.80
73586;DHT22;61865;50.232;18.614;2022-07-24T09:35:58;22.70;52.20
73586;DHT22;61865;50.232;18.614;2022-07-24T09:38:21;22.90;49.50
73586;DHT22;61865;50.232;18.614;2022-07-24T09:40:46;22.90;44.90
73586;DHT22;61865;50.232;18.614;2022-07-24T09:43:13;22.90;44.40
73586;DHT22;61865;50.232;18.614;2022-07-24T09:45:54;23.10;48.80
73586;DHT22;61865;50.232;18.614;2022-07-24T09:48:18;23.10;51.40
73586;DHT22;61865;50.232;18.614;2022-07-24T09:50:49;23.10;52.10
73586;DHT22;61865;50.232;18.614;2022-07-24T09:53:11;23.40;51.20
73586;DHT22;61865;50.232;18.614;2022-07-24T09:55:34;23.40;51.70
73586;DHT22;61865;50.232;18.614;2022-07-24T09:57:57;23.40;52.30
73586;DHT22;61865;50.232;18.614;2022-07-24T10:00:19;23.50;51.30
73586;DHT22;61865;50.232;18.614;2022-07-24T10:02:43;23.30;49.30
73586;DHT22;61865;50.232;18.614;2022-07-24T10:05:07;23.20;49.80
73586;DHT22;61865;50.232;18.614;2022-07-24T10:07:30;23.10;49.50
73586;DHT22;61865;50.232;18.614;2022-07-24T10:09:54;23.20;48.30
73586;DHT22;61865;50.232;18.614;2022-07-24T10:12:17;23.30;48.30
73586;DHT22;61865;50.232;18.614;2022-07-24T10:14:43;23.50;48.50
73586;DHT22;61865;50.232;18.614;2022-07-24T10:17:08;23.40;46.60
73586;DHT22;61865;50.232;18.614;2022-07-24T10:19:39;23.40;46.10
73586;DHT22;61865;50.232;18.614;2022-07-24T10:22:08;23.40;43.30
73586;DHT22;61865;50.232;18.614;2022-07-24T10:24:56;23.40;43.70
73586;DHT22;61865;50.232;18.614;2022-07-24T10:27:28;23.50;41.50
73586;DHT22;61865;50.232;18.614;2022-07-24T10:29:52;23.30;43.00
73586;DHT22;61865;50.232;18.614;2022-07-24T10:32:14;23.30;44.80
73586;DHT22;61865;50.232;18.614;2022-07-24T10:34:41;23.20;44.90
73586;DHT22;61865;50.232;18.614;2022-07-24T10:37:10;23.30;45.30
73586;DHT22;61865;50.232;18.614;2022-07-24T10:39:58;23.20;44.70
73586;DHT22;61865;50.232;18.614;2022-07-24T10:42:20;23.60;44.60
73586;DHT22;61865;50.232;18.614;2022-07-24T10:44:42;23.60;43.50
73586;DHT22;61865;50.232;18.614;2022-07-24T10:47:06;23.60;44.90
73586;DHT22;61865;50.232;18.614;2022-07-24T10:49:34;23.40;46.80
73586;DHT22;61865;50.232;18.614;2022-07-24T10:51:58;23.50;43.30
73586;DHT22;61865;50.232;18.614;2022-07-24T10:54:20;23.40;41.70
73586;DHT22;61865;50.232;18.614;2022-07-24T10:56:48;23.30;43.60
73586;DHT22;61865;50.232;18.614;2022-07-24T10:59:11;23.50;44.20
73586;DHT22;61865;50.232;18.614;2022-07-24T11:01:38;23.80;44.90
73586;DHT22;61865;50.232;18.614;2022-07-24T11:06:43;23.70;43.70
73586;DHT22;61865;50.232;18.614;2022-07-24T11:09:05;23.50;42.90
73586;DHT22;61865;50.232;18.614;2022-07-24T11:11:27;23.40;42.30
73586;DHT22;61865;50.232;18.614;2022-07-24T11:13:51;23.50;43.60
73586;DHT22;61865;50.232;18.614;2022-07-24T11:16:18;23.40;45.10
73586;DHT22;61865;50.232;18.614;2022-07-24T11:18:42;23.50;44.00
73586;DHT22;61865;50.232;18.614;2022-07-24T11:21:04;23.60;45.20
73586;DHT22;61865;50.232;18.614;2022-07-24T11:23:26;23.80;44.70
73586;DHT22;61865;50.232;18.614;2022-07-24T11:25:48;23.90;42.40
73586;DHT22;61865;50.232;18.614;2022-07-24T11:28:12;23.70;42.10
73586;DHT22;61865;50.232;18.614;2022-07-24T11:30:41;23.50;40.80
73586;DHT22;61865;50.232;18.614;2022-07-24T11:33:04;23.60;42.70
73586;DHT22;61865;50.232;18.614;2022-07-24T11:35:31;23.60;41.60
73586;DHT22;61865;50.232;18.614;2022-07-24T11:37:53;23.50;41.00
73586;DHT22;61865;50.232;18.614;2022-07-24T11:40:16;23.90;43.40
73586;DHT22;61865;50.232;18.614;2022-07-24T11:42:38;23.70;42.30
73586;DHT22;61865;50.232;18.614;2022-07-24T11:45:01;23.80;40.90
73586;DHT22;61865;50.232;18.614;2022-07-24T11:47:26;23.80;41.20
73586;DHT22;61865;50.232;18.614;2022-07-24T11:49:50;23.70;40.20
73586;DHT22;61865;50.232;18.614;2022-07-24T11:52:14;23.60;40.70
73586;DHT22;61865;50.232;18.614;2022-07-24T11:54:40;23.70;41.50
73586;DHT22;61865;50.232;18.614;2022-07-24T11:57:02;24.00;41.90
73586;DHT22;61865;50.232;18.614;2022-07-24T11:59:25;24.00;40.00
73586;DHT22;61865;50.232;18.614;2022-07-24T12:01:47;24.00;40.50
73586;DHT22;61865;50.232;18.614;2022-07-24T12:04:11;23.90;39.70
73586;DHT22;61865;50.232;18.614;2022-07-24T12:06:32;23.90;40.80
73586;DHT22;61865;50.232;18.614;2022-07-24T12:08:59;23.90;41.90
73586;DHT22;61865;50.232;18.614;2022-07-24T12:11:26;23.70;41.80
73586;DHT22;61865;50.232;18.614;2022-07-24T12:13:48;24.00;43.30
73586;DHT22;61865;50.232;18.614;2022-07-24T12:16:14;24.00;41.50
73586;DHT22;61865;50.232;18.614;2022-07-24T12:18:43;24.10;41.30
73586;DHT22;61865;50.232;18.614;2022-07-24T12:21:07;24.20;42.30
73586;DHT22;61865;50.232;18.614;2022-07-24T12:23:30;24.10;41.70
73586;DHT22;61865;50.232;18.614;2022-07-24T12:25:52;24.40;42.30
73586;DHT22;61865;50.232;18.614;2022-07-24T12:28:15;24.20;40.60
73586;DHT22;61865;50.232;18.614;2022-07-24T12:30:39;24.20;42.40
73586;DHT22;61865;50.232;18.614;2022-07-24T12:33:03;24.30;40.40
73586;DHT22;61865;50.232;18.614;2022-07-24T12:35:26;24.30;40.00
73586;DHT22;61865;50.232;18.614;2022-07-24T12:37:50;24.40;42.00
73586;DHT22;61865;50.232;18.614;2022-07-24T12:40:22;24.40;39.80
73586;DHT22;61865;50.232;18.614;2022-07-24T12:42:44;24.30;38.60
73586;DHT22;61865;50.232;18.614;2022-07-24T12:45:08;24.40;39.10
73586;DHT22;61865;50.232;18.614;2022-07-24T12:47:30;24.40;39.00
73586;DHT22;61865;50.232;18.614;2022-07-24T12:49:52;24.30;38.60
73586;DHT22;61865;50.232;18.614;2022-07-24T12:52:21;24.40;40.30
73586;DHT22;61865;50.232;18.614;2022-07-24T12:54:47;24.40;39.60
73586;DHT22;61865;50.232;18.614;2022-07-24T12:57:11;24.50;38.40
73586;DHT22;61865;50.232;18.614;2022-07-24T12:59:34;24.30;39.10
73586;DHT22;61865;50.232;18.614;2022-07-24T13:01:58;24.40;39.50
73586;DHT22;61865;50.232;18.614;2022-07-24T13:04:23;24.60;38.40
73586;DHT22;61865;50.232;18.614;2022-07-24T13:06:46;24.60;36.10
73586;DHT22;61865;50.232;18.614;2022-07-24T13:09:10;24.50;37.30
73586;DHT22;61865;50.232;18.614;2022-07-24T13:11:33;24.70;37.10
73586;DHT22;61865;50.232;18.614;2022-07-24T13:13:55;24.60;36.30
73586;DHT22;61865;50.232;18.614;2022-07-24T13:16:17;24.80;36.30
73586;DHT22;61865;50.232;18.614;2022-07-24T13:18:39;24.60;36.30
73586;DHT22;61865;50.232;18.614;2022-07-24T13:21:01;24.80;36.80
73586;DHT22;61865;50.232;18.614;2022-07-24T13:23:23;24.70;35.70
73586;DHT22;61865;50.232;18.614;2022-07-24T13:25:45;24.70;36.70
73586;DHT22;61865;50.232;18.614;2022-07-24T13:28:09;24.60;35.70
73586;DHT22;61865;50.232;18.614;2022-07-24T13:30:31;24.70;37.30
73586;DHT22;61865;50.232;18.614;2022-07-24T13:32:53;24.60;35.70
73586;DHT22;61865;50.232;18.614;2022-07-24T13:35:15;24.60;36.60
73586;DHT22;61865;50.232;18.614;2022-07-24T13:37:36;24.60;35.90
73586;DHT22;61865;50.232;18.614;2022-07-24T13:39:58;24.60;36.10
73586;DHT22;61865;50.232;18.614;2022-07-24T13:42:20;24.80;35.70
73586;DHT22;61865;50.232;18.614;2022-07-24T13:44:43;24.80;36.50
73586;DHT22;61865;50.232;18.614;2022-07-24T13:47:05;24.80;35.80
73586;DHT22;61865;50.232;18.614;2022-07-24T13:49:27;24.70;36.00
73586;DHT22;61865;50.232;18.614;2022-07-24T13:51:49;24.70;35.80
73586;DHT22;61865;50.232;18.614;2022-07-24T13:54:11;24.80;36.00
73586;DHT22;61865;50.232;18.614;2022-07-24T13:56:33;24.70;34.30
73586;DHT22;61865;50.232;18.614;2022-07-24T13:58:56;24.70;35.50
73586;DHT22;61865;50.232;18.614;2022-07-24T14:01:20;24.80;36.40
73586;DHT22;61865;50.232;18.614;2022-07-24T14:03:42;24.90;35.60
73586;DHT22;61865;50.232;18.614;2022-07-24T14:06:05;25.10;34.80
73586;DHT22;61865;50.232;18.614;2022-07-24T14:08:28;25.00;34.70
73586;DHT22;61865;50.232;18.614;2022-07-24T14:10:50;24.90;34.20
73586;DHT22;61865;50.232;18.614;2022-07-24T14:13:12;24.80;34.00
73586;DHT22;61865;50.232;18.614;2022-07-24T14:15:34;24.80;34.00
73586;DHT22;61865;50.232;18.614;2022-07-24T14:17:58;24.80;34.60
73586;DHT22;61865;50.232;18.614;2022-07-24T14:20:20;25.00;34.80
73586;DHT22;61865;50.232;18.614;2022-07-24T14:22:42;24.90;34.70
73586;DHT22;61865;50.232;18.614;2022-07-24T14:25:05;24.90;34.20
73586;DHT22;61865;50.232;18.614;2022-07-24T14:27:27;24.80;34.40
73586;DHT22;61865;50.232;18.614;2022-07-24T14:29:49;24.90;35.00
73586;DHT22;61865;50.232;18.614;2022-07-24T14:32:11;24.80;35.20
73586;DHT22;61865;50.232;18.614;2022-07-24T14:34:34;24.70;33.70
73586;DHT22;61865;50.232;18.614;2022-07-24T14:36:56;24.90;34.60
73586;DHT22;61865;50.232;18.614;2022-07-24T14:39:18;24.90;35.30
73586;DHT22;61865;50.232;18.614;2022-07-24T14:41:40;25.00;34.90
73586;DHT22;61865;50.232;18.614;2022-07-24T14:44:02;25.00;32.30
73586;DHT22;61865;50.232;18.614;2022-07-24T14:46:24;24.90;33.00
73586;DHT22;61865;50.232;18.614;2022-07-24T14:48:46;24.90;34.00
73586;DHT22;61865;50.232;18.614;2022-07-24T14:51:09;24.90;33.40